Time;durP1;ratioP1;P1;durP2;ratioP2;P2;SDS_P1;SDS_P2;PMS_P1;PMS_P2;Temp;Humidity;BMP_temperature;BMP_pressure;BME280_temperature;BME280_humidity;BME280_pressure;Samples;Min_cycle;Max_cycle;Signal;HPM_P1;HPM_P2
2022/08/31 00:06:18;;;;;;;5.70;2.63;;;13.50;99.90;;;13.56;87.49;101783.09;4945259;29;20647;-71
2022/08/31 00:08:47;;;;;;;3.60;1.63;;;13.60;99.90;;;13.55;87.66;101786.06;4955304;29;20416;-71
2022/08/31 00:11:26;;;;;;;1.87;1.57;;;13.50;99.90;;;13.47;87.92;101787.88;4962196;28;20416;-71
2022/08/31 00:13:58;;;;;;;2.17;1.80;;;13.50;99.90;;;13.52;88.19;101787.28;4949281;29;20468;-70
2022/08/31 00:16:32;;;;;;;5.00;2.07;;;13.40;99.90;;;13.46;88.12;101791.63;4937754;29;20786;-70
2022/08/31 00:19:03;;;;;;;2.60;1.67;;;13.50;99.90;;;13.44;88.20;101785.56;4934637;29;20442;-72
2022/08/31 00:21:32;;;;;;;2.13;1.43;;;13.50;99.90;;;13.37;89.04;101781.09;4929821;29;21006;-73
2022/08/31 00:24:02;;;;;;;2.20;1.70;;;13.40;99.90;;;13.49;88.36;101782.25;4936390;29;20476;-72
2022/08/31 00:26:31;;;;;;;4.00;2.67;;;13.40;99.90;;;13.46;88.62;101785.34;4933460;29;20535;-73
2022/08/31 00:29:02;;;;;;;1.93;1.40;;;13.40;99.90;;;13.34;88.88;101785.09;4930587;29;20450;-71
2022/08/31 00:31:32;;;;;;;5.03;1.63;;;13.30;99.90;;;13.31;89.20;101790.09;4935037;29;20434;-71
2022/08/31 00:34:04;;;;;;;2.27;1.73;;;13.30;99.90;;;13.23;90.04;101788.34;4932167;29;20431;-72
2022/08/31 00:36:34;;;;;;;1.73;1.60;;;13.30;99.90;;;13.16;90.75;101787.47;4938011;29;20430;-72
2022/08/31 00:39:05;;;;;;;3.37;1.67;;;13.20;99.90;;;13.14;91.02;101786.81;4930935;29;20887;-72
2022/08/31 00:41:38;;;;;;;2.57;1.77;;;13.10;99.90;;;13.06;91.44;101789.66;4938164;29;20446;-71
2022/08/31 00:44:10;;;;;;;2.70;2.47;;;13.10;99.90;;;13.08;91.99;101784.84;4936915;29;20486;-72
2022/08/31 00:46:43;;;;;;;2.53;1.70;;;13.10;99.90;;;13.06;92.06;101785.06;4934572;29;20445;-72
2022/08/31 00:49:17;;;;;;;3.83;2.03;;;13.10;99.90;;;12.96;92.71;101781.00;4929008;29;20449;-71
2022/08/31 00:51:53;;;;;;;2.00;1.67;;;13.00;99.90;;;12.97;92.62;101778.06;4931630;29;20410;-71
2022/08/31 00:54:28;;;;;;;8.23;2.10;;;13.00;99.90;;;12.98;92.63;101773.47;4929427;29;20902;-71
2022/08/31 00:56:58;;;;;;;1.70;1.60;;;13.00;99.90;;;12.95;92.87;101784.75;4930205;29;20479;-71
2022/08/31 00:59:29;;;;;;;2.73;2.00;;;12.90;99.90;;;12.90;93.42;101782.63;4931933;29;20477;-71
2022/08/31 01:02:00;;;;;;;1.83;1.67;;;12.90;99.90;;;12.93;93.65;101792.22;4938920;28;20501;-71
2022/08/31 01:04:30;;;;;;;5.77;2.87;;;12.90;99.90;;;12.98;93.24;101789.78;4939882;29;20443;-71
2022/08/31 01:07:00;;;;;;;3.57;2.30;;;12.90;99.90;;;12.83;93.86;101789.84;4934830;29;20427;-72
2022/08/31 01:09:36;;;;;;;3.40;2.70;;;12.90;99.90;;;12.95;93.73;101795.59;4930209;29;20408;-72
2022/08/31 01:12:08;;;;;;;2.70;2.23;;;12.90;99.90;;;12.85;94.51;101800.53;4928894;29;20437;-72
2022/08/31 01:14:39;;;;;;;2.43;2.23;;;12.90;99.90;;;12.95;93.97;101792.88;4933962;29;20481;-72
2022/08/31 01:17:10;;;;;;;2.20;2.00;;;12.90;99.90;;;12.99;93.92;101796.91;4940426;29;20449;-70
2022/08/31 01:19:51;;;;;;;2.87;2.47;;;12.90;99.90;;;13.12;93.48;101791.59;4971986;28;20454;-72
2022/08/31 01:22:33;;;;;;;2.70;2.07;;;13.00;99.90;;;13.35;92.08;101794.06;4951622;29;20407;-70
2022/08/31 01:25:05;;;;;;;2.53;1.73;;;13.10;99.90;;;13.34;91.42;101795.94;4956007;29;20435;-72
2022/08/31 01:27:37;;;;;;;3.10;2.37;;;13.20;99.90;;;13.41;91.01;101810.41;4953627;29;20440;-71
2022/08/31 01:30:10;;;;;;;13.87;2.60;;;13.30;99.90;;;13.36;91.12;101804.72;4953524;29;20406;-71
2022/08/31 01:32:40;;;;;;;3.10;2.40;;;13.30;99.90;;;13.51;90.91;101801.91;4953751;29;20454;-71
2022/08/31 01:35:10;;;;;;;2.77;1.97;;;13.30;99.90;;;13.68;90.21;101807.88;4953826;29;20447;-70
2022/08/31 01:37:39;;;;;;;2.33;1.67;;;13.40;99.90;;;13.69;89.34;101809.56;4932963;29;20443;-72
2022/08/31 01:40:12;;;;;;;6.33;1.63;;;13.50;99.90;;;13.63;89.62;101796.75;4927799;29;20495;-70
2022/08/31 01:42:41;;;;;;;2.90;1.90;;;13.50;99.90;;;13.55;90.11;101799.66;4948336;28;20657;-71
2022/08/31 01:45:12;;;;;;;3.77;1.70;;;13.50;99.90;;;13.65;89.62;101802.84;4939634;28;20681;-72
2022/08/31 01:47:41;;;;;;;2.70;1.50;;;13.50;99.90;;;13.73;89.27;101799.97;4930898;29;20437;-72
2022/08/31 01:50:10;;;;;;;2.60;1.80;;;13.60;99.90;;;13.72;89.21;101809.16;4927630;29;20507;-71
2022/08/31 01:52:40;;;;;;;3.23;1.80;;;13.60;99.90;;;13.77;89.43;101802.06;4933876;29;20399;-72
2022/08/31 01:55:11;;;;;;;3.40;2.07;;;13.60;99.90;;;13.82;89.17;101806.91;4928588;29;20473;-72
2022/08/31 01:57:40;;;;;;;9.73;2.00;;;13.70;99.90;;;13.75;89.35;101806.03;4943679;28;20448;-72
2022/08/31 02:00:28;;;;;;;8.70;1.87;;;13.70;99.90;;;13.77;89.44;101807.50;4931052;29;20438;-72
2022/08/31 02:03:01;;;;;;;2.60;2.13;;;13.70;99.90;;;13.75;89.62;101803.31;4926740;29;20440;-72
2022/08/31 02:05:30;;;;;;;4.10;2.00;;;13.70;99.90;;;13.83;89.36;101805.88;4929019;29;20444;-72
2022/08/31 02:08:00;;;;;;;3.00;1.97;;;13.70;99.90;;;13.74;89.94;101807.94;4924403;29;20449;-71
2022/08/31 02:10:31;;;;;;;2.47;2.20;;;13.60;99.90;;;13.67;90.61;101809.75;4929961;29;20451;-71
2022/08/31 02:13:01;;;;;;;2.40;1.77;;;13.60;99.90;;;13.68;90.17;101805.16;4926789;29;20857;-71
2022/08/31 02:15:31;;;;;;;1.83;1.70;;;13.60;99.90;;;13.74;90.05;101801.66;4933665;29;20446;-72
2022/08/31 02:18:00;;;;;;;2.83;1.70;;;13.60;99.90;;;13.82;89.66;101801.47;4941016;29;20438;-71
2022/08/31 02:20:30;;;;;;;4.03;2.23;;;13.60;99.90;;;13.68;90.37;101802.44;4931535;28;20963;-72
2022/08/31 02:23:02;;;;;;;3.50;1.83;;;13.60;99.90;;;13.63;90.56;101799.47;4935629;29;20419;-71
2022/08/31 02:25:32;;;;;;;2.30;2.10;;;13.50;99.90;;;13.63;90.98;101797.59;4941142;28;20454;-72
2022/08/31 02:28:04;;;;;;;4.27;2.67;;;13.50;99.90;;;13.59;91.12;101795.50;4931267;29;20820;-72
2022/08/31 02:30:33;;;;;;;5.27;2.10;;;13.50;99.90;;;13.66;91.30;101799.06;4931420;29;20412;-72
2022/08/31 02:33:03;;;;;;;2.77;2.20;;;13.50;99.90;;;13.53;92.02;101788.13;4936726;28;20427;-71
2022/08/31 02:35:32;;;;;;;10.67;2.50;;;13.50;99.90;;;13.49;92.58;101788.53;4939258;29;20443;-72
2022/08/31 02:38:02;;;;;;;3.50;2.47;;;13.40;99.90;;;13.49;92.25;101791.25;4932659;29;20424;-72
2022/08/31 02:40:37;;;;;;;4.70;2.20;;;13.40;99.90;;;13.53;92.42;101788.13;4930840;29;20447;-72
2022/08/31 02:43:11;;;;;;;4.57;2.60;;;13.40;99.90;;;13.41;93.07;101783.22;4934192;29;20534;-71
2022/08/31 02:45:54;;;;;;;2.90;2.50;;;13.30;99.90;;;13.39;93.66;101785.31;4928671;29;20514;-71
2022/08/31 02:48:29;;;;;;;4.63;2.40;;;13.30;99.90;;;13.43;93.88;101783.03;4934423;29;20448;-72
2022/08/31 02:51:06;;;;;;;2.20;2.00;;;13.30;99.90;;;13.44;93.20;101788.28;4937197;29;20801;-71
2022/08/31 02:53:37;;;;;;;3.57;2.77;;;13.30;99.90;;;13.38;93.76;101782.78;4933103;29;20447;-72
2022/08/31 02:56:13;;;;;;;4.40;2.30;;;13.30;99.90;;;13.31;94.42;101788.19;4931277;29;20423;-70
2022/08/31 02:58:42;;;;;;;4.30;2.70;;;13.30;99.90;;;13.28;94.99;101791.31;4938206;29;20563;-72
2022/08/31 03:01:11;;;;;;;2.90;2.37;;;13.20;99.90;;;13.21;95.33;101790.44;4938855;29;20533;-72
2022/08/31 03:03:41;;;;;;;4.00;2.07;;;13.20;99.90;;;13.16;95.33;101786.63;4936223;28;20992;-72
2022/08/31 03:06:18;;;;;;;3.20;2.50;;;13.20;99.90;;;13.11;96.13;101784.50;4932765;29;20435;-70
2022/08/31 03:08:47;;;;;;;2.90;2.17;;;13.10;99.90;;;13.20;95.81;101783.31;4940228;29;20441;-70
2022/08/31 03:11:19;;;;;;;3.80;2.30;;;13.20;99.90;;;13.19;95.79;101781.63;4935082;29;20598;-70
2022/08/31 03:13:48;;;;;;;2.30;1.97;;;13.20;99.90;;;13.07;96.06;101788.59;4940727;29;20500;-70
2022/08/31 03:16:18;;;;;;;2.33;2.07;;;13.10;99.90;;;13.02;96.60;101788.38;4931970;29;20784;-71
2022/08/31 03:18:47;;;;;;;3.13;2.77;;;13.10;99.90;;;13.06;97.04;101786.94;4941552;29;20846;-71
2022/08/31 03:21:16;;;;;;;2.77;2.47;;;13.00;99.90;;;13.05;96.61;101779.81;4934653;29;20545;-73
2022/08/31 03:23:46;;;;;;;5.00;2.70;;;13.00;99.90;;;13.03;96.67;101779.16;4936849;29;20451;-72
2022/08/31 03:26:17;;;;;;;4.70;2.67;;;13.00;99.90;;;13.06;96.36;101779.63;4937363;29;20443;-72
2022/08/31 03:28:46;;;;;;;3.40;2.50;;;13.00;99.90;;;13.10;96.11;101776.50;4933066;29;20428;-71
2022/08/31 03:31:33;;;;;;;3.07;2.77;;;13.00;99.90;;;12.83;97.41;101772.75;4933955;29;20415;-71
2022/08/31 03:34:03;;;;;;;2.20;1.97;;;12.90;99.90;;;12.75;98.11;101781.00;4932316;29;20457;-71
2022/08/31 03:36:33;;;;;;;3.77;2.50;;;12.80;99.90;;;12.73;98.48;101774.94;4932011;29;20474;-72
2022/08/31 03:39:03;;;;;;;3.10;2.37;;;12.70;99.90;;;12.81;98.54;101777.50;4952886;29;20426;-72
2022/08/31 03:41:33;;;;;;;4.03;2.93;;;12.70;99.90;;;12.66;98.75;101784.88;4957064;29;20474;-70
2022/08/31 03:44:04;;;;;;;4.43;2.73;;;12.70;99.90;;;12.59;99.41;101784.81;4961851;28;20816;-70
2022/08/31 03:46:34;;;;;;;4.70;2.30;;;12.60;99.90;;;12.58;99.55;101788.59;4940876;29;20481;-71
2022/08/31 03:49:06;;;;;;;2.77;2.57;;;12.60;99.90;;;12.51;99.88;101788.50;4932862;29;20475;-72
2022/08/31 03:51:35;;;;;;;6.23;3.10;;;12.50;99.90;;;12.50;100.00;101796.84;4933009;29;20424;-71
2022/08/31 03:54:05;;;;;;;7.93;3.23;;;12.50;99.90;;;12.48;100.00;101794.34;4931488;29;20561;-72
2022/08/31 03:56:36;;;;;;;3.80;2.63;;;12.50;99.90;;;12.45;100.00;101800.13;4936359;29;20447;-70
2022/08/31 03:59:05;;;;;;;4.17;3.40;;;12.40;99.90;;;12.47;100.00;101811.66;4949409;28;20436;-72
2022/08/31 04:01:54;;;;;;;6.10;2.50;;;12.40;99.90;;;12.38;100.00;101809.25;4928127;29;20515;-71
2022/08/31 04:04:42;;;;;;;4.50;2.70;;;12.40;99.90;;;12.36;100.00;101805.88;4932500;29;20977;-71
2022/08/31 04:07:29;;;;;;;3.33;2.63;;;12.40;99.90;;;12.29;100.00;101807.69;4933191;29;20898;-73
2022/08/31 04:10:30;;;;;;;3.83;3.23;;;12.30;99.90;;;12.44;100.00;101809.31;4926308;29;20433;-72
2022/08/31 04:13:30;;;;;;;6.53;3.23;;;12.40;99.90;;;12.40;100.00;101813.44;4925519;29;20449;-72
2022/08/31 04:16:22;;;;;;;3.83;3.20;;;12.40;99.90;;;12.37;100.00;101810.28;4928956;29;20420;-72
2022/08/31 04:19:04;;;;;;;4.60;3.37;;;12.40;99.90;;;12.39;100.00;101819.91;4930429;29;20412;-71
2022/08/31 04:21:42;;;;;;;5.70;3.80;;;12.30;99.90;;;12.30;100.00;101814.78;4934336;29;20890;-71
2022/08/31 04:24:13;;;;;;;5.37;4.03;;;12.30;99.90;;;12.25;100.00;101822.69;4930041;29;20916;-72
2022/08/31 04:26:42;;;;;;;5.30;4.67;;;12.20;99.90;;;12.32;100.00;101813.56;4928377;29;20457;-72
2022/08/31 04:29:14;;;;;;;5.10;3.20;;;12.30;99.90;;;12.50;100.00;101824.00;4922776;29;20916;-73
2022/08/31 04:31:43;;;;;;;4.57;3.33;;;12.40;99.90;;;12.41;100.00;101825.16;4934728;29;20423;-72
2022/08/31 04:34:13;;;;;;;5.70;3.83;;;12.30;99.90;;;12.40;100.00;101832.44;4933276;29;20486;-70
2022/08/31 04:36:44;;;;;;;3.73;3.40;;;12.30;99.90;;;12.37;100.00;101824.69;4934751;29;20456;-72
2022/08/31 04:39:14;;;;;;;9.13;3.60;;;12.30;99.90;;;12.41;100.00;101826.00;4947584;28;20961;-71
2022/08/31 04:41:45;;;;;;;4.73;3.10;;;12.30;99.90;;;12.74;100.00;101830.91;4931024;29;20530;-72
2022/08/31 04:44:16;;;;;;;5.93;3.70;;;12.40;99.90;;;13.48;96.67;101833.06;4930715;29;20502;-72
2022/08/31 04:46:57;;;;;;;8.63;3.80;;;12.70;99.90;;;14.09;91.52;101827.75;4936872;29;20514;-71
2022/08/31 04:49:26;;;;;;;6.70;3.67;;;13.00;99.90;;;14.70;86.35;101830.50;4930402;29;20462;-70
2022/08/31 04:51:55;;;;;;;9.10;3.27;;;13.40;99.90;;;14.93;83.08;101833.69;4938296;29;20977;-71
2022/08/31 04:54:25;;;;;;;3.03;2.73;;;13.70;99.90;;;14.66;83.49;101829.25;4934488;29;20486;-71
2022/08/31 04:56:54;;;;;;;6.60;3.60;;;13.80;99.90;;;14.64;85.85;101831.31;4935264;29;20922;-72
2022/08/31 04:59:31;;;;;;;7.00;2.37;;;13.90;99.90;;;15.54;79.86;101838.97;4931773;29;20543;-70
2022/08/31 05:02:20;;;;;;;6.57;3.20;;;14.20;99.90;;;16.36;75.43;101838.28;4927649;29;20463;-70
2022/08/31 05:04:57;;;;;;;5.37;2.87;;;14.70;99.90;;;17.06;72.04;101839.97;4932438;29;20430;-72
2022/08/31 05:07:26;;;;;;;6.33;4.40;;;15.00;99.90;;;17.67;69.09;101837.34;4928413;29;20535;-72
2022/08/31 05:09:58;;;;;;;3.80;3.10;;;15.60;99.90;;;16.84;71.15;101836.78;4933417;29;20486;-71
2022/08/31 05:12:27;;;;;;;4.70;2.90;;;15.70;99.90;;;15.36;76.67;101834.13;4929727;29;20798;-72
2022/08/31 05:14:58;;;;;;;4.50;3.07;;;15.20;99.90;;;14.57;81.13;101835.94;4931011;29;20499;-73
2022/08/31 05:17:29;;;;;;;4.17;2.80;;;14.60;1.00;;;13.94;85.88;101838.78;4930116;29;20432;-70
2022/08/31 05:19:58;;;;;;;4.80;2.70;;;14.10;1.00;;;13.68;87.63;101841.38;4931590;29;20453;-71
2022/08/31 05:22:30;;;;;;;4.50;2.70;;;13.80;99.90;;;13.60;89.37;101836.09;4935495;29;20479;-72
2022/08/31 05:25:00;;;;;;;4.13;2.77;;;13.60;99.90;;;13.47;90.24;101836.81;4926587;29;20539;-70
2022/08/31 05:27:30;;;;;;;2.60;2.40;;;13.50;1.00;;;13.53;90.46;101842.50;4930020;29;20483;-70
2022/08/31 05:30:01;;;;;;;7.07;2.40;;;13.40;99.90;;;13.54;90.61;101841.47;4932563;29;20449;-72
2022/08/31 05:32:53;;;;;;;3.80;3.30;;;13.40;1.00;;;13.56;90.63;101836.66;4932097;29;20500;-72
2022/08/31 05:35:22;;;;;;;3.40;2.90;;;13.50;1.00;;;13.64;90.39;101850.13;4931297;29;20471;-72
2022/08/31 05:37:51;;;;;;;3.53;2.73;;;13.50;1.00;;;13.60;90.73;101846.13;4928167;29;20449;-72
2022/08/31 05:40:21;;;;;;;5.20;2.67;;;13.50;1.00;;;13.69;90.32;101847.66;4931382;29;20426;-71
2022/08/31 05:42:50;;;;;;;3.80;2.87;;;13.50;1.00;;;13.76;89.67;101838.47;4935382;29;20942;-72
2022/08/31 05:45:21;;;;;;;3.53;2.60;;;13.60;99.90;;;13.84;89.46;101845.66;4932799;28;20483;-73
2022/08/31 05:47:51;;;;;;;2.63;2.40;;;13.60;23.40;;;14.02;88.54;101854.13;4937689;28;20527;-72
2022/08/31 05:50:20;;;;;;;3.17;2.37;;;13.80;99.90;;;14.12;87.49;101853.75;4935411;29;20442;-73
2022/08/31 05:52:50;;;;;;;3.60;2.57;;;13.90;1.00;;;14.22;86.47;101849.63;4932941;29;20429;-72
2022/08/31 05:55:19;;;;;;;3.60;2.80;;;14.00;1.00;;;14.32;86.29;101855.53;4941186;29;20801;-71
2022/08/31 05:57:48;;;;;;;3.53;2.17;;;14.10;99.90;;;14.45;85.50;101857.47;4973636;28;20450;-72
2022/08/31 06:00:18;;;;;;;7.57;2.50;;;14.30;99.90;;;14.56;85.04;101856.03;4951987;29;20508;-71
2022/08/31 06:02:55;;;;;;;3.43;2.13;;;14.40;66.80;;;14.68;84.11;101855.22;4957869;29;20456;-71
2022/08/31 06:05:24;;;;;;;2.40;2.20;;;14.50;1.00;;;14.82;83.38;101856.09;4955874;29;20447;-72
2022/08/31 06:07:53;;;;;;;3.23;2.20;;;14.60;1.00;;;14.83;82.92;101852.31;4960229;29;20423;-71
2022/08/31 06:10:24;;;;;;;4.57;1.97;;;14.70;1.00;;;14.98;82.85;101861.16;4966784;29;20507;-71
2022/08/31 06:12:53;;;;;;;2.93;1.93;;;14.70;1.00;;;15.22;81.33;101863.28;4963268;29;20488;-71
2022/08/31 06:15:23;;;;;;;2.30;2.00;;;15.00;1.00;;;15.42;80.23;101856.97;4953885;29;20446;-72
2022/08/31 06:17:53;;;;;;;8.23;2.27;;;15.10;1.00;;;15.56;78.81;101855.94;4943598;29;20535;-72
2022/08/31 06:20:25;;;;;;;2.23;1.70;;;15.30;1.00;;;15.64;78.65;101855.72;4939592;29;20459;-72
2022/08/31 06:22:55;;;;;;;4.00;2.40;;;15.40;1.00;;;15.70;77.59;101854.03;4932311;29;20497;-72
2022/08/31 06:25:36;;;;;;;4.00;2.03;;;15.50;99.90;;;15.88;76.89;101863.22;4954491;23;20481;-73
2022/08/31 06:28:07;;;;;;;1.77;1.50;;;15.60;99.90;;;15.98;76.09;101851.88;4935356;29;20445;-74
2022/08/31 06:30:39;;;;;;;2.77;1.97;;;15.80;99.90;;;16.18;75.24;101862.72;4941502;29;20907;-75
2022/08/31 06:33:23;;;;;;;3.13;1.77;;;16.00;99.90;;;16.26;74.50;101865.22;4947378;29;20784;-74
2022/08/31 06:36:11;;;;;;;1.53;1.40;;;16.10;99.90;;;16.29;74.16;101865.63;4941572;28;20575;-74
2022/08/31 06:39:00;;;;;;;1.40;1.00;;;16.20;99.90;;;16.44;73.89;101859.88;4958705;23;21077;-71
2022/08/31 06:41:38;;;;;;;2.20;1.40;;;16.30;99.90;;;16.55;72.75;101859.22;4950677;28;20486;-70
2022/08/31 06:44:28;;;;;;;5.37;2.00;;;16.40;99.90;;;16.71;71.64;101855.13;4928200;29;20466;-70
2022/08/31 06:47:10;;;;;;;3.03;1.20;;;16.50;99.90;;;16.72;71.76;101854.09;4931359;29;20456;-71
2022/08/31 06:49:43;;;;;;;3.10;1.43;;;16.60;99.90;;;16.83;70.57;101853.41;4914955;29;20450;-70
2022/08/31 06:52:16;;;;;;;2.10;1.07;;;16.60;99.90;;;16.81;70.39;101850.88;4915677;29;20515;-70
2022/08/31 06:54:51;;;;;;;1.73;1.00;;;16.70;99.90;;;16.89;70.48;101849.78;4929953;29;20491;-70
2022/08/31 06:57:38;;;;;;;4.27;1.20;;;16.80;99.90;;;16.98;69.74;101848.47;4915569;29;20444;-71
2022/08/31 07:00:33;;;;;;;3.10;1.20;;;16.80;99.90;;;17.06;69.27;101845.44;4921419;29;20453;-70
2022/08/31 07:03:33;;;;;;;2.53;1.57;;;16.90;99.90;;;17.11;68.55;101847.50;4916546;29;20540;-70
2022/08/31 07:06:09;;;;;;;3.20;1.63;;;17.00;99.90;;;17.20;68.50;101857.13;4934816;29;20520;-70
2022/08/31 07:08:41;;;;;;;3.00;1.17;;;17.10;99.90;;;17.47;67.83;101855.84;4941206;29;20458;-71
2022/08/31 07:11:18;;;;;;;1.93;1.23;;;17.20;99.90;;;17.61;67.66;101859.31;4938079;29;20898;-70
2022/08/31 07:13:48;;;;;;;2.00;1.07;;;17.40;99.90;;;17.78;66.80;101863.97;4933208;29;20483;-70
2022/08/31 07:16:21;;;;;;;2.10;1.10;;;17.50;99.90;;;18.02;65.41;101873.19;4917374;29;20464;-70
2022/08/31 07:18:53;;;;;;;1.97;1.10;;;17.70;99.90;;;17.96;64.90;101874.09;4933279;29;20536;-70
2022/08/31 07:21:25;;;;;;;1.97;1.10;;;17.80;99.90;;;18.08;63.90;101882.41;4919328;29;20456;-71
2022/08/31 07:23:59;;;;;;;1.73;1.17;;;17.90;97.30;;;18.09;64.90;101881.34;4919343;29;20491;-71
2022/08/31 07:26:34;;;;;;;2.93;1.20;;;17.90;99.30;;;18.26;63.91;101879.66;4922639;29;20429;-70
2022/08/31 07:29:08;;;;;;;2.60;0.93;;;18.00;98.20;;;18.37;61.35;101884.38;4933807;29;20556;-71
2022/08/31 07:31:43;;;;;;;5.57;1.30;;;18.20;72.20;;;18.43;61.58;101886.22;4916267;29;20484;-71
2022/08/31 07:34:15;;;;;;;4.67;0.83;;;18.20;68.30;;;18.44;61.84;101882.41;4928912;29;20467;-69
2022/08/31 07:42:39;;;;;;;4.37;3.13;;;18.30;58.00;;;18.42;61.75;101889.19;4928864;29;21015;-70
2022/08/31 07:45:21;;;;;;;2.57;0.93;;;18.30;57.30;;;18.35;60.57;101893.91;4921076;29;20476;-70
2022/08/31 07:47:54;;;;;;;1.67;0.90;;;18.20;49.70;;;18.50;59.00;101902.56;4911721;29;20492;-71
2022/08/31 07:50:30;;;;;;;3.83;1.10;;;18.30;41.80;;;18.41;58.82;101903.94;4932684;29;20434;-70
2022/08/31 07:53:21;;;;;;;3.20;1.07;;;18.20;37.20;;;18.30;58.86;101908.28;4900393;29;20511;-70
2022/08/31 07:56:12;;;;;;;2.63;1.00;;;18.20;34.20;;;18.71;57.91;101904.00;4909456;29;20959;-70
2022/08/31 07:58:44;;;;;;;1.40;1.10;;;18.40;33.70;;;18.70;57.98;101907.81;4915194;29;20458;-70
2022/08/31 08:01:14;;;;;;;1.60;1.10;;;18.50;30.70;;;18.81;58.28;101909.78;4917375;29;20460;-70
2022/08/31 08:03:43;;;;;;;2.97;0.93;;;18.60;30.70;;;18.85;58.36;101898.09;4917292;29;20473;-71
2022/08/31 08:06:31;;;;;;;1.90;0.90;;;18.60;29.40;;;19.15;56.42;101903.59;4913034;29;20581;-69
2022/08/31 08:09:11;;;;;;;1.67;0.80;;;18.80;27.00;;;19.05;56.94;101906.06;4918814;29;20513;-70
2022/08/31 08:12:26;;;;;;;2.70;1.20;;;18.90;24.60;;;19.22;56.87;101900.75;4910585;29;20437;-71
2022/08/31 08:15:09;;;;;;;2.20;0.97;;;19.00;23.20;;;19.47;56.07;101910.47;4909819;29;20480;-71
2022/08/31 08:17:48;;;;;;;2.53;0.93;;;19.10;21.70;;;19.45;55.15;101901.66;4919554;29;20448;-70
2022/08/31 08:20:22;;;;;;;1.93;1.03;;;19.20;25.70;;;19.63;55.29;101917.19;4937426;29;20966;-70
2022/08/31 08:23:11;;;;;;;1.70;1.07;;;19.30;16.80;;;19.75;55.60;101919.94;4909545;29;20474;-70
2022/08/31 08:26:07;;;;;;;1.60;0.80;;;19.50;15.80;;;19.73;56.10;101917.44;4919984;29;20444;-70
2022/08/31 08:29:05;;;;;;;2.23;1.07;;;19.40;15.80;;;19.77;54.97;101909.53;4910778;29;20847;-70
2022/08/31 08:31:39;;;;;;;1.40;0.90;;;19.50;12.90;;;19.66;55.38;101902.13;4914245;29;21021;-70
2022/08/31 08:34:09;;;;;;;2.23;1.03;;;19.50;11.90;;;19.60;55.57;101903.09;4913311;29;20481;-72
2022/08/31 08:36:39;;;;;;;2.80;1.43;;;19.40;11.10;;;19.27;57.10;101898.94;4931397;29;20453;-71
2022/08/31 08:39:10;;;;;;;4.83;1.27;;;19.20;10.20;;;19.43;53.80;101902.91;4907523;29;20513;-71
2022/08/31 08:41:56;;;;;;;2.37;1.37;;;19.20;7.50;;;19.49;55.04;101913.81;4927866;29;20677;-70
2022/08/31 08:44:31;;;;;;;2.00;1.23;;;19.30;6.20;;;19.73;55.30;101909.19;4932347;29;20980;-71
2022/08/31 08:47:07;;;;;;;10.73;1.30;;;19.40;7.00;;;20.29;53.30;101911.28;4914176;29;20864;-70
2022/08/31 08:49:48;;;;;;;4.20;0.80;;;19.70;6.80;;;20.06;50.64;101905.81;4927221;29;20945;-70
2022/08/31 08:52:29;;;;;;;2.70;1.10;;;19.80;1.00;;;20.10;49.63;101909.75;4918060;29;20452;-72
2022/08/31 08:55:05;;;;;;;2.30;0.97;;;19.90;1.00;;;20.27;50.23;101909.88;4912079;29;20507;-71
2022/08/31 08:57:40;;;;;;;2.60;0.83;;;19.90;1.00;;;20.23;50.36;101916.94;4911652;29;20465;-70
2022/08/31 09:00:16;;;;;;;1.73;1.00;;;20.00;1.00;;;20.26;50.63;101914.53;4912783;29;20490;-71
2022/08/31 09:02:56;;;;;;;2.13;1.10;;;20.00;1.00;;;20.65;51.13;101912.91;4923457;29;21011;-70
2022/08/31 09:06:05;;;;;;;1.80;0.80;;;20.30;1.00;;;20.49;50.24;101918.31;4892631;29;20460;-72
2022/08/31 09:09:08;;;;;;;4.60;0.90;;;20.30;1.00;;;20.70;48.62;101915.75;4910833;29;20457;-71
2022/08/31 09:11:57;;;;;;;2.23;0.90;;;20.40;1.00;;;20.91;47.96;101911.50;4916048;29;20986;-70
2022/08/31 09:14:52;;;;;;;3.17;0.90;;;20.50;1.00;;;21.01;49.03;101917.16;4918807;29;20555;-71
2022/08/31 09:17:42;;;;;;;2.40;0.90;;;20.60;1.00;;;20.90;49.86;101909.81;4922098;29;20470;-72
2022/08/31 09:20:15;;;;;;;2.03;1.17;;;20.60;1.00;;;21.20;49.43;101909.59;4932716;29;20445;-70
2022/08/31 09:22:48;;;;;;;1.90;0.90;;;20.80;1.00;;;21.33;50.06;101902.91;4927907;29;20520;-71
2022/08/31 09:25:31;;;;;;;1.20;0.77;;;20.90;1.00;;;21.09;50.42;101899.44;4927624;28;20476;-71
2022/08/31 09:28:17;;;;;;;2.03;1.27;;;20.90;1.00;;;21.47;48.87;101899.56;4908649;29;20557;-71
2022/08/31 09:30:51;;;;;;;1.60;1.10;;;21.00;1.00;;;21.45;49.46;101898.97;4913420;29;20454;-70
2022/08/31 09:33:26;;;;;;;3.00;1.07;;;21.10;1.00;;;21.49;47.90;101899.34;4913513;29;20449;-70
2022/08/31 09:36:16;;;;;;;2.90;1.33;;;21.20;1.00;;;21.37;46.09;101912.34;4920548;29;20958;-71
2022/08/31 09:38:47;;;;;;;2.00;1.20;;;21.20;1.00;;;21.22;46.16;101907.41;4917594;29;20456;-73
2022/08/31 09:41:35;;;;;;;1.77;1.03;;;21.10;1.00;;;21.21;47.59;101906.56;4912839;29;20984;-72
2022/08/31 09:44:29;;;;;;;4.07;1.47;;;21.00;1.00;;;21.30;48.88;101909.72;4911582;29;20483;-70
2022/08/31 09:47:03;;;;;;;3.57;0.70;;;20.90;1.00;;;21.53;48.32;101908.75;4911129;29;20456;-70
2022/08/31 09:49:37;;;;;;;2.13;0.80;;;21.10;1.00;;;21.44;48.29;101913.84;4915208;29;20445;-70
2022/08/31 09:55:12;;;;;;;3.33;1.10;;;21.10;1.00;;;20.96;49.04;101903.31;4920390;29;20440;-70
2022/08/31 09:55:24;;;;;;;1.97;0.93;;;20.90;1.00;;;20.79;50.11;101902.44;4918959;29;20983;-70
2022/08/31 09:57:57;;;;;;;2.57;1.20;;;20.60;1.00;;;20.79;48.58;101906.03;4929177;29;20454;-71
2022/08/31 10:00:39;;;;;;;8.93;1.23;;;20.60;1.00;;;20.91;47.16;101900.50;4910952;29;20459;-70
2022/08/31 10:03:20;;;;;;;1.40;0.90;;;20.60;1.00;;;20.94;47.47;101893.66;4914404;29;20473;-71
2022/08/31 10:05:53;;;;;;;2.13;0.80;;;20.70;1.00;;;21.19;46.78;101892.22;4909061;29;20446;-71
2022/08/31 10:08:41;;;;;;;1.50;0.80;;;20.80;1.00;;;21.57;45.85;101898.91;4916692;29;20445;-71
2022/08/31 10:11:16;;;;;;;2.10;0.93;;;21.00;1.00;;;21.55;45.41;101890.03;4919852;29;20440;-71
2022/08/31 10:13:55;;;;;;;2.63;1.17;;;21.30;1.00;;;21.25;45.90;101888.44;4913648;29;20464;-70
2022/08/31 10:16:34;;;;;;;4.23;1.13;;;21.10;1.00;;;20.63;46.91;101895.81;4920100;29;20440;-71
2022/08/31 10:19:09;;;;;;;1.80;0.77;;;20.70;1.00;;;20.95;46.75;101887.06;4928885;29;20432;-70
2022/08/31 10:21:50;;;;;;;1.70;0.80;;;20.60;1.00;;;21.06;46.82;101889.75;4911261;29;20674;-70
2022/08/31 10:24:32;;;;;;;1.20;0.60;;;20.70;1.00;;;21.11;46.52;101900.00;4923847;29;20863;-70
2022/08/31 10:27:15;;;;;;;2.90;1.00;;;20.80;1.00;;;21.43;46.56;101894.81;4921815;29;20449;-71
2022/08/31 10:29:55;;;;;;;1.90;1.10;;;21.00;1.00;;;21.33;46.32;101889.16;4924294;29;20516;-71
2022/08/31 10:32:36;;;;;;;3.23;0.90;;;21.10;1.00;;;21.52;45.67;101885.06;4925304;29;20441;-71
2022/08/31 10:35:16;;;;;;;1.30;0.87;;;21.20;1.00;;;21.44;46.56;101886.31;4935200;29;20535;-70
2022/08/31 10:38:07;;;;;;;3.60;1.17;;;21.10;1.00;;;21.78;45.35;101878.88;4920580;29;20475;-71
2022/08/31 10:40:45;;;;;;;2.70;0.90;;;21.40;1.00;;;21.58;45.27;101889.56;4920038;29;20980;-71
2022/08/31 10:43:20;;;;;;;1.87;0.90;;;21.20;1.00;;;21.74;44.20;101876.84;4921996;29;20511;-71
2022/08/31 10:45:53;;;;;;;2.47;1.10;;;21.40;1.00;;;21.90;44.65;101881.50;4917277;29;20467;-71
2022/08/31 10:48:25;;;;;;;2.23;1.00;;;21.50;1.00;;;21.89;45.74;101875.16;4924916;29;20441;-71
2022/08/31 10:51:16;;;;;;;1.77;0.90;;;21.60;1.00;;;21.88;46.04;101872.66;4917907;29;20497;-71
2022/08/31 10:54:05;;;;;;;2.00;1.00;;;21.60;1.00;;;21.86;46.02;101874.84;4911703;29;20476;-71
2022/08/31 10:56:48;;;;;;;2.07;0.97;;;21.60;1.00;;;22.01;45.87;101875.91;4927159;29;20590;-70
2022/08/31 10:59:35;;;;;;;1.43;1.00;;;21.60;1.00;;;22.37;44.17;101873.59;4915192;29;20957;-70